KSUS/SUS METAR and TAF weather

Enter ICAO airport designator
Station Type Date Time Source
KSUS METAR 2021/07/26 13:54 UTC NOAA

KSUS 261354Z 08004KT 6SM HZ CLR 26/21 A3003 RMK AO2 SLP162 T02610206 $


Station Type Date Time Source
KSUS Decoded METAR 2021/07/26 13:54 UTC NOAA

SPIRIT OF ST. LOUIS AIRPORT , MO, United States (KSUS) 38-39N 090-39W 141M
Jul 26, 2021 - 09:54 AM EDT / 2021.07.26 1354 UTC
Wind: from the E (080 degrees) at 5 MPH (4 KT):0
Visibility: 6 mile(s):0
Sky conditions: clear
Weather: haze
Temperature: 79.0 F (26.1 C)
Dew Point: 69.1 F (20.6 C)
Relative Humidity: 71%
Pressure (altimeter): 30.03 in. Hg (1016 hPa)
ob: KSUS 261354Z 08004KT 6SM HZ CLR 26/21 A3003 RMK AO2 SLP162 T02610206
cycle: 14

Station Type Date Time Source
KSUS TAF 2021/07/26 13:28 UTC NOAA

TAF
AMD KSUS 261326Z 2613/2712 VRB03KT P6SM SKC
FM261400 05005KT P6SM SKC

Example: see airport list